createdAt,value
2018-07-10T00:00:40.952Z,15.67
2018-07-10T00:02:08.394Z,15.66
2018-07-10T00:03:35.838Z,15.65
2018-07-10T00:05:03.154Z,15.64
2018-07-10T00:06:30.377Z,15.62
2018-07-10T00:07:57.908Z,15.64
2018-07-10T00:09:25.485Z,15.63
2018-07-10T00:10:54.079Z,15.57
2018-07-10T00:12:20.470Z,15.50
2018-07-10T00:13:48.906Z,15.45
2018-07-10T00:15:15.218Z,15.45
2018-07-10T00:16:42.756Z,15.46
2018-07-10T00:18:10.079Z,15.45
2018-07-10T00:19:37.091Z,15.44
2018-07-10T00:21:05.620Z,15.45
2018-07-10T00:22:32.895Z,15.46
2018-07-10T00:24:00.430Z,15.44
2018-07-10T00:25:26.727Z,15.46
2018-07-10T00:26:55.226Z,15.45
2018-07-10T00:28:21.731Z,15.44
2018-07-10T00:29:49.171Z,15.45
2018-07-10T00:31:16.638Z,15.46
2018-07-10T00:32:45.057Z,15.38
2018-07-10T00:34:11.480Z,15.31
2018-07-10T00:35:38.857Z,15.27
2018-07-10T00:37:07.163Z,15.26
2018-07-10T00:38:34.680Z,15.20
2018-07-10T00:40:02.243Z,15.14
2018-07-10T00:41:28.524Z,15.13
2018-07-10T00:42:57.061Z,15.11
2018-07-10T00:44:23.400Z,15.14
2018-07-10T00:45:52.023Z,15.16
2018-07-10T00:47:19.406Z,15.21
2018-07-10T00:48:45.802Z,15.20
2018-07-10T00:50:13.218Z,15.18
2018-07-10T00:51:40.634Z,15.09
2018-07-10T00:53:07.866Z,15.03
2018-07-10T00:54:35.498Z,14.96
2018-07-10T00:56:03.729Z,14.94
2018-07-10T00:57:31.305Z,14.98
2018-07-10T00:58:57.449Z,15.01
2018-07-10T01:00:26.059Z,15.02
2018-07-10T01:01:52.145Z,15.01
2018-07-10T01:03:19.742Z,15.06
2018-07-10T01:04:47.157Z,15.06
2018-07-10T01:06:14.456Z,14.95
2018-07-10T01:07:41.893Z,14.93
2018-07-10T01:09:09.279Z,14.94
2018-07-10T01:10:36.769Z,14.97
2018-07-10T01:12:04.239Z,15.01
2018-07-10T01:13:32.728Z,15.02
2018-07-10T01:15:00.175Z,15.03
2018-07-10T01:16:26.544Z,15.04
2018-07-10T01:17:53.823Z,14.98
2018-07-10T01:19:20.999Z,14.95
2018-07-10T01:20:48.241Z,14.95
2018-07-10T01:22:15.781Z,14.98
2018-07-10T01:23:44.142Z,15.00
2018-07-10T01:25:10.580Z,15.02
2018-07-10T01:26:39.003Z,15.04
2018-07-10T01:28:05.114Z,15.07
2018-07-10T01:29:33.640Z,15.11
2018-07-10T01:31:01.087Z,15.14
2018-07-10T01:32:27.423Z,15.16
2018-07-10T01:33:54.738Z,15.19
2018-07-10T01:35:23.178Z,15.17
2018-07-10T01:36:50.701Z,15.17
2018-07-10T01:38:16.953Z,15.17
2018-07-10T01:39:44.257Z,15.19
2018-07-10T01:41:11.628Z,15.18
2018-07-10T01:42:38.862Z,15.18
2018-07-10T01:44:06.437Z,15.19
2018-07-10T01:45:33.708Z,15.17
2018-07-10T01:47:01.370Z,15.17
2018-07-10T01:48:28.690Z,15.15
2018-07-10T01:49:56.185Z,15.14
2018-07-10T01:51:24.551Z,15.14
2018-07-10T01:52:51.753Z,15.15
2018-07-10T01:54:19.313Z,15.14
2018-07-10T01:55:46.596Z,15.12
2018-07-10T01:57:13.150Z,15.11
2018-07-10T01:58:41.454Z,15.10
2018-07-10T02:00:08.926Z,15.06
2018-07-10T02:01:35.236Z,15.07
2018-07-10T02:03:02.727Z,15.04
2018-07-10T02:04:29.993Z,15.03
2018-07-10T02:05:57.347Z,15.03
2018-07-10T02:07:24.694Z,15.04
2018-07-10T02:08:52.110Z,15.03
2018-07-10T02:10:19.529Z,15.00
2018-07-10T02:11:46.992Z,14.97
2018-07-10T02:13:14.454Z,14.97
2018-07-10T02:14:41.937Z,14.97
2018-07-10T02:16:10.552Z,14.96
2018-07-10T02:17:37.921Z,14.87
2018-07-10T02:19:05.272Z,14.76
2018-07-10T02:20:32.636Z,14.76
2018-07-10T02:21:59.021Z,14.79
2018-07-10T02:23:27.369Z,14.81
2018-07-10T02:24:53.883Z,14.84
2018-07-10T02:26:22.279Z,14.85
2018-07-10T02:27:49.651Z,14.82
2018-07-10T02:29:15.845Z,14.74
2018-07-10T02:30:44.315Z,14.63
2018-07-10T02:32:11.461Z,14.51
2018-07-10T02:33:37.613Z,14.40
2018-07-10T02:35:05.064Z,14.34
2018-07-10T02:36:32.448Z,14.29
2018-07-10T02:37:59.850Z,14.28
2018-07-10T02:39:28.163Z,14.29
2018-07-10T02:40:54.575Z,14.33
2018-07-10T02:42:21.973Z,14.39
2018-07-10T02:43:50.425Z,14.42
2018-07-10T02:45:16.796Z,14.44
2018-07-10T02:46:45.116Z,14.46
2018-07-10T02:48:11.441Z,14.50
2018-07-10T02:49:38.946Z,14.52
2018-07-10T02:51:07.569Z,14.54
2018-07-10T02:52:34.922Z,14.54
2018-07-10T02:54:01.205Z,14.53
2018-07-10T02:55:28.639Z,14.43
2018-07-10T02:56:56.214Z,14.30
2018-07-10T02:58:24.592Z,14.15
2018-07-10T02:59:50.974Z,14.04
2018-07-10T03:01:18.374Z,13.97
2018-07-10T03:02:46.768Z,13.94
2018-07-10T03:04:14.261Z,13.92
2018-07-10T03:05:40.429Z,13.90
2018-07-10T03:07:08.699Z,13.83
2018-07-10T03:08:36.242Z,13.76
2018-07-10T03:10:01.878Z,13.74
2018-07-10T03:11:30.287Z,13.73
2018-07-10T03:12:58.015Z,13.74
2018-07-10T03:14:24.485Z,13.72
2018-07-10T03:15:51.868Z,13.76
2018-07-10T03:17:20.560Z,13.76
2018-07-10T03:18:47.959Z,13.76
2018-07-10T03:20:14.358Z,13.80
2018-07-10T03:21:42.775Z,13.83
2018-07-10T03:23:10.189Z,13.86
2018-07-10T03:24:37.534Z,13.92
2018-07-10T03:26:04.936Z,13.95
2018-07-10T03:27:32.269Z,13.99
2018-07-10T03:28:59.750Z,14.02
2018-07-10T03:30:25.989Z,14.04
2018-07-10T03:31:54.414Z,13.98
2018-07-10T03:33:20.597Z,13.93
2018-07-10T03:34:47.942Z,13.92
2018-07-10T03:36:15.403Z,13.89
2018-07-10T03:37:42.809Z,13.84
2018-07-10T03:39:10.035Z,13.80
2018-07-10T03:40:37.368Z,13.77
2018-07-10T03:42:04.861Z,13.77
2018-07-10T03:43:33.202Z,13.81
2018-07-10T03:44:59.630Z,13.86
2018-07-10T03:46:26.658Z,13.90
2018-07-10T03:47:54.249Z,13.92
2018-07-10T03:49:22.628Z,13.91
2018-07-10T03:50:49.886Z,13.91
2018-07-10T03:52:16.316Z,13.89
2018-07-10T03:53:43.691Z,13.84
2018-07-10T03:55:11.139Z,13.89
2018-07-10T03:56:38.210Z,13.93
2018-07-10T03:58:05.617Z,13.95
2018-07-10T03:59:34.136Z,13.98
2018-07-10T04:01:01.429Z,13.99
2018-07-10T04:02:28.706Z,14.01
2018-07-10T04:03:55.105Z,14.03
2018-07-10T04:05:23.279Z,14.03
2018-07-10T04:06:50.794Z,14.04
2018-07-10T04:08:18.136Z,13.99
2018-07-10T04:09:45.487Z,13.87
2018-07-10T04:11:12.630Z,13.78
2018-07-10T04:12:39.109Z,13.71
2018-07-10T04:14:06.651Z,13.65
2018-07-10T04:15:34.935Z,13.58
2018-07-10T04:17:01.050Z,13.51
2018-07-10T04:18:28.509Z,13.47
2018-07-10T04:19:57.013Z,13.46
2018-07-10T04:21:24.388Z,13.45
2018-07-10T04:22:50.622Z,13.43
2018-07-10T04:24:18.125Z,13.42
2018-07-10T04:25:46.679Z,13.42
2018-07-10T04:27:12.970Z,13.44
2018-07-10T04:28:41.351Z,13.43
2018-07-10T04:30:07.597Z,13.43
2018-07-10T04:31:37.936Z,13.43
2018-07-10T04:33:02.398Z,13.45
2018-07-10T04:34:29.523Z,13.45
2018-07-10T04:35:57.074Z,13.46
2018-07-10T04:37:25.398Z,13.48
2018-07-10T04:38:51.831Z,13.46
2018-07-10T04:40:20.205Z,13.43
2018-07-10T04:41:47.581Z,13.42
2018-07-10T04:43:14.036Z,13.43
2018-07-10T04:44:41.227Z,13.43
2018-07-10T04:46:09.670Z,13.43
2018-07-10T04:47:37.017Z,13.45
2018-07-10T04:49:04.491Z,13.47
2018-07-10T04:50:30.657Z,13.49
2018-07-10T04:51:59.227Z,13.49
2018-07-10T04:53:26.405Z,13.50
2018-07-10T04:54:52.977Z,13.51
2018-07-10T04:56:20.341Z,13.53
2018-07-10T04:57:47.813Z,13.52
2018-07-10T04:59:16.220Z,13.57
2018-07-10T05:00:42.604Z,13.58
2018-07-10T05:02:09.821Z,13.54
2018-07-10T05:03:37.402Z,13.51
2018-07-10T05:05:04.866Z,13.49
2018-07-10T05:06:33.226Z,13.52
2018-07-10T05:07:59.419Z,13.64
2018-07-10T05:09:26.910Z,13.72
2018-07-10T05:10:55.344Z,13.73
2018-07-10T05:12:21.716Z,13.80
2018-07-10T05:13:50.198Z,13.84
2018-07-10T05:15:16.534Z,13.85
2018-07-10T05:16:44.970Z,13.83
2018-07-10T05:18:12.270Z,13.81
2018-07-10T05:19:39.747Z,13.79
2018-07-10T05:21:05.712Z,13.79
2018-07-10T05:22:33.047Z,13.80
2018-07-10T05:24:00.440Z,13.83
2018-07-10T05:25:28.650Z,13.92
2018-07-10T05:26:54.897Z,14.04
2018-07-10T05:28:23.418Z,14.13
2018-07-10T05:29:51.053Z,14.22
2018-07-10T05:31:17.398Z,14.26
2018-07-10T05:32:44.781Z,14.27
2018-07-10T05:34:12.232Z,14.25
2018-07-10T05:35:40.686Z,14.25
2018-07-10T05:37:07.201Z,14.26
2018-07-10T05:38:34.428Z,14.29
2018-07-10T05:40:01.934Z,14.29
2018-07-10T05:41:30.330Z,14.30
2018-07-10T05:42:56.810Z,14.30
2018-07-10T05:44:25.293Z,14.33
2018-07-10T05:45:52.742Z,14.40
2018-07-10T05:47:19.004Z,14.66
2018-07-10T05:48:47.595Z,14.88
2018-07-10T05:50:13.777Z,15.03
2018-07-10T05:51:41.122Z,15.08
2018-07-10T05:53:09.317Z,15.17
2018-07-10T05:54:35.836Z,15.26
2018-07-10T05:56:03.146Z,15.53
2018-07-10T05:57:30.790Z,15.68
2018-07-10T05:58:58.196Z,15.90
2018-07-10T06:00:25.765Z,16.30
2018-07-10T06:01:53.340Z,16.46
2018-07-10T06:03:21.425Z,16.67
2018-07-10T06:04:48.838Z,17.06
2018-07-10T06:06:15.091Z,17.55
2018-07-10T06:07:42.611Z,17.92
2018-07-10T06:09:10.123Z,18.16
2018-07-10T06:10:38.639Z,18.20
2018-07-10T06:12:04.980Z,18.02
2018-07-10T06:13:32.479Z,17.98
2018-07-10T06:15:00.035Z,17.86
2018-07-10T06:16:28.571Z,17.64
2018-07-10T06:17:54.979Z,17.62
2018-07-10T06:19:23.442Z,17.74
2018-07-10T06:20:49.863Z,17.98
2018-07-10T06:22:17.207Z,18.26
2018-07-10T06:23:45.885Z,18.48
2018-07-10T06:25:12.107Z,18.54
2018-07-10T06:26:39.433Z,18.41
2018-07-10T06:28:07.038Z,18.25
2018-07-10T06:29:35.385Z,18.24
2018-07-10T06:31:02.549Z,18.25
2018-07-10T06:32:30.051Z,18.23
2018-07-10T06:33:56.477Z,18.23
2018-07-10T06:35:24.036Z,18.36
2018-07-10T06:36:52.713Z,18.47
2018-07-10T06:38:18.878Z,18.61
2018-07-10T06:39:47.386Z,18.69
2018-07-10T06:41:13.625Z,18.72
2018-07-10T06:42:42.296Z,18.68
2018-07-10T06:44:08.664Z,18.61
2018-07-10T06:45:36.266Z,18.57
2018-07-10T06:47:03.672Z,18.68
2018-07-10T06:48:31.113Z,18.88
2018-07-10T06:49:59.744Z,19.18
2018-07-10T06:51:26.123Z,19.32
2018-07-10T06:52:53.844Z,19.50
2018-07-10T06:54:21.308Z,19.71
2018-07-10T06:55:48.939Z,20.03
2018-07-10T06:57:17.549Z,20.27
2018-07-10T06:58:45.184Z,20.46
2018-07-10T07:00:11.714Z,20.45
2018-07-10T07:01:39.100Z,20.60
2018-07-10T07:03:06.715Z,20.52
2018-07-10T07:04:35.343Z,20.34
2018-07-10T07:06:01.806Z,20.03
2018-07-10T07:07:29.504Z,19.75
2018-07-10T07:08:57.025Z,19.52
2018-07-10T07:10:25.561Z,19.40
2018-07-10T07:11:53.064Z,19.39
2018-07-10T07:13:19.583Z,19.45
2018-07-10T07:14:47.027Z,19.57
2018-07-10T07:16:14.722Z,19.63
2018-07-10T07:17:42.233Z,19.80
2018-07-10T07:19:10.649Z,19.90
2018-07-10T07:20:37.063Z,19.94
2018-07-10T07:22:04.496Z,20.02
2018-07-10T07:23:32.220Z,20.02
2018-07-10T07:24:59.698Z,20.22
2018-07-10T07:26:27.241Z,20.60
2018-07-10T07:27:54.732Z,20.95
2018-07-10T07:29:22.473Z,20.97
2018-07-10T07:30:50.875Z,20.67
2018-07-10T07:32:17.483Z,20.54
2018-07-10T07:33:45.172Z,20.42
2018-07-10T07:35:12.654Z,20.45
2018-07-10T07:36:40.117Z,20.50
2018-07-10T07:38:07.580Z,20.56
2018-07-10T07:39:35.120Z,20.72
2018-07-10T07:41:03.852Z,20.57
2018-07-10T07:42:31.325Z,20.32
2018-07-10T07:43:58.824Z,20.11
2018-07-10T07:45:25.181Z,20.03
2018-07-10T07:46:52.732Z,19.95
2018-07-10T07:48:20.208Z,19.87
2018-07-10T07:49:47.642Z,19.71
2018-07-10T07:51:15.243Z,19.50
2018-07-10T07:52:42.864Z,19.29
2018-07-10T07:54:10.141Z,19.08
2018-07-10T07:55:37.452Z,18.98
2018-07-10T07:57:05.838Z,19.04
2018-07-10T07:58:32.462Z,19.01
2018-07-10T07:59:59.979Z,19.12
2018-07-10T08:01:27.539Z,19.22
2018-07-10T08:02:54.921Z,19.20
2018-07-10T08:04:22.327Z,19.10
2018-07-10T08:05:49.946Z,19.01
2018-07-10T08:07:17.337Z,19.08
2018-07-10T08:08:44.688Z,19.14
2018-07-10T08:10:13.333Z,19.24
2018-07-10T08:11:40.624Z,19.39
2018-07-10T08:13:07.227Z,19.57
2018-07-10T08:14:35.578Z,19.71
2018-07-10T08:16:02.987Z,19.81
2018-07-10T08:17:29.494Z,19.95
2018-07-10T08:18:58.059Z,20.13
2018-07-10T08:20:24.611Z,20.27
2018-07-10T08:21:51.942Z,20.34
2018-07-10T08:23:20.522Z,20.28
2018-07-10T08:24:46.893Z,20.18
2018-07-10T08:26:14.598Z,20.18
2018-07-10T08:27:42.093Z,20.19
2018-07-10T08:29:10.483Z,20.21
2018-07-10T08:30:36.745Z,20.08
2018-07-10T08:32:05.249Z,20.02
2018-07-10T08:33:32.896Z,20.04
2018-07-10T08:35:00.142Z,19.99
2018-07-10T08:36:26.668Z,20.00
2018-07-10T08:37:54.290Z,20.05
2018-07-10T08:39:21.573Z,19.89
2018-07-10T08:40:49.944Z,19.68
2018-07-10T08:42:16.503Z,19.46
2018-07-10T08:43:43.804Z,19.45
2018-07-10T08:45:11.218Z,19.46
2018-07-10T08:46:38.686Z,19.47
2018-07-10T08:48:06.103Z,19.55
2018-07-10T08:49:33.636Z,19.56
2018-07-10T08:51:01.063Z,19.41
2018-07-10T08:52:29.811Z,19.34
2018-07-10T08:53:56.133Z,19.32
2018-07-10T08:55:23.886Z,19.31
2018-07-10T08:56:52.272Z,19.25
2018-07-10T08:58:19.815Z,19.26
2018-07-10T08:59:46.319Z,19.21
2018-07-10T09:01:13.749Z,19.13
2018-07-10T09:02:42.258Z,19.16
2018-07-10T09:04:08.463Z,19.26
2018-07-10T09:05:35.656Z,19.36
2018-07-10T09:07:03.278Z,19.42
2018-07-10T09:08:31.877Z,19.44
2018-07-10T09:09:58.248Z,19.39
2018-07-10T09:11:26.709Z,19.43
2018-07-10T09:12:53.260Z,19.51
2018-07-10T09:14:20.606Z,19.64
2018-07-10T09:15:48.997Z,19.79
2018-07-10T09:17:15.526Z,19.88
2018-07-10T09:18:43.058Z,20.13
2018-07-10T09:20:10.599Z,20.35
2018-07-10T09:21:38.137Z,20.44
2018-07-10T09:23:05.809Z,20.50
2018-07-10T09:24:34.216Z,20.27
2018-07-10T09:26:01.607Z,20.17
2018-07-10T09:27:28.128Z,20.04
2018-07-10T09:28:55.602Z,20.01
2018-07-10T09:30:22.941Z,20.19
2018-07-10T09:31:50.367Z,20.42
2018-07-10T09:33:17.958Z,20.37
2018-07-10T09:34:45.426Z,20.39
2018-07-10T09:36:13.050Z,20.46
2018-07-10T09:37:40.492Z,20.53
2018-07-10T09:39:08.006Z,20.67
2018-07-10T09:40:35.661Z,20.74
2018-07-10T09:42:04.310Z,20.75
2018-07-10T09:43:30.876Z,20.75
2018-07-10T09:44:58.382Z,20.81
2018-07-10T09:46:26.849Z,20.88
2018-07-10T09:47:54.160Z,20.90
2018-07-10T09:49:20.613Z,20.74
2018-07-10T09:50:48.167Z,20.59
2018-07-10T09:52:15.480Z,20.45
2018-07-10T09:53:43.069Z,20.38
2018-07-10T09:55:11.589Z,20.37
2018-07-10T09:56:38.157Z,20.30
2018-07-10T09:58:05.884Z,20.12
2018-07-10T09:59:33.543Z,20.03
2018-07-10T10:01:02.112Z,19.98
2018-07-10T10:02:28.623Z,20.00
2018-07-10T10:03:55.991Z,19.96
2018-07-10T10:05:24.501Z,19.90
2018-07-10T10:06:50.991Z,19.96
2018-07-10T10:08:19.372Z,20.03
2018-07-10T10:09:46.774Z,20.13
2018-07-10T10:11:13.189Z,20.16
2018-07-10T10:12:41.579Z,20.33
2018-07-10T10:14:09.000Z,20.44
2018-07-10T10:15:36.209Z,20.38
2018-07-10T10:17:02.677Z,20.21
2018-07-10T10:18:30.293Z,19.98
2018-07-10T10:19:57.726Z,19.87
2018-07-10T10:21:25.138Z,19.75
2018-07-10T10:22:53.667Z,19.65
2018-07-10T10:24:20.223Z,19.65
2018-07-10T10:25:47.736Z,19.73
2018-07-10T10:27:15.132Z,19.87
2018-07-10T10:28:42.239Z,20.02
2018-07-10T10:30:10.694Z,20.18
2018-07-10T10:31:37.062Z,20.27
2018-07-10T10:33:04.350Z,20.25
2018-07-10T10:34:31.966Z,20.23
2018-07-10T10:36:00.620Z,20.23
2018-07-10T10:37:26.914Z,20.26
2018-07-10T10:38:55.546Z,20.25
2018-07-10T10:40:22.980Z,20.24
2018-07-10T10:41:50.678Z,20.16
2018-07-10T10:43:17.096Z,20.10
2018-07-10T10:44:45.839Z,20.16
2018-07-10T10:46:11.902Z,20.24
2018-07-10T10:47:39.454Z,20.26
2018-07-10T10:49:07.065Z,20.28
2018-07-10T10:50:34.578Z,20.39
2018-07-10T10:52:02.191Z,20.56
2018-07-10T10:53:29.809Z,20.74
2018-07-10T10:54:57.219Z,20.86
2018-07-10T10:56:24.722Z,20.91
2018-07-10T10:57:52.345Z,21.03
2018-07-10T10:59:19.790Z,21.21
2018-07-10T11:00:47.342Z,21.23
2018-07-10T11:02:15.993Z,21.31
2018-07-10T11:03:42.307Z,21.32
2018-07-10T11:05:09.836Z,21.29
2018-07-10T11:06:37.293Z,21.33
2018-07-10T11:08:04.980Z,21.37
2018-07-10T11:09:32.301Z,21.43
2018-07-10T11:10:59.820Z,21.58
2018-07-10T11:12:27.383Z,21.47
2018-07-10T11:13:56.029Z,21.36
2018-07-10T11:15:23.616Z,21.12
2018-07-10T11:16:50.114Z,21.07
2018-07-10T11:18:18.640Z,21.13
2018-07-10T11:19:45.057Z,21.23
2018-07-10T11:21:13.685Z,21.15
2018-07-10T11:22:41.210Z,21.06
2018-07-10T11:24:08.544Z,21.01
2018-07-10T11:25:34.829Z,20.99
2018-07-10T11:27:02.502Z,20.94
2018-07-10T11:28:30.173Z,20.96
2018-07-10T11:29:58.578Z,20.96
2018-07-10T11:31:24.965Z,21.01
2018-07-10T11:32:52.535Z,21.13
2018-07-10T11:34:20.072Z,21.26
2018-07-10T11:35:48.801Z,21.33
2018-07-10T11:37:15.230Z,21.61
2018-07-10T11:38:42.654Z,21.93
2018-07-10T11:40:10.265Z,22.27
2018-07-10T11:41:38.584Z,22.67
2018-07-10T11:43:05.963Z,22.99
2018-07-10T11:44:32.454Z,23.40
2018-07-10T11:46:00.203Z,23.76
2018-07-10T11:47:27.778Z,23.56
2018-07-10T11:48:55.415Z,23.52
2018-07-10T11:50:23.824Z,23.25
2018-07-10T11:51:50.417Z,22.88
2018-07-10T11:53:18.023Z,22.63
2018-07-10T11:54:46.571Z,22.52
2018-07-10T11:56:13.978Z,22.40
2018-07-10T11:57:40.423Z,22.22
2018-07-10T11:59:07.934Z,22.04
2018-07-10T12:00:35.399Z,21.89
2018-07-10T12:02:03.975Z,21.79
2018-07-10T12:03:30.561Z,21.75
2018-07-10T12:04:58.467Z,21.76
2018-07-10T12:06:25.948Z,21.75
2018-07-10T12:07:53.698Z,21.68
2018-07-10T12:09:21.189Z,21.60
2018-07-10T12:10:48.796Z,21.48
2018-07-10T12:12:16.411Z,21.45
2018-07-10T12:13:44.791Z,21.39
2018-07-10T12:15:11.454Z,21.35
2018-07-10T12:16:39.958Z,21.43
2018-07-10T12:18:06.380Z,21.48
2018-07-10T12:19:34.916Z,21.56
2018-07-10T12:21:02.356Z,21.56
2018-07-10T12:22:29.747Z,21.48
2018-07-10T12:23:56.423Z,21.49
2018-07-10T12:25:23.770Z,21.56
2018-07-10T12:26:52.442Z,21.58
2018-07-10T12:28:19.958Z,21.54
2018-07-10T12:29:47.347Z,21.60
2018-07-10T12:31:20.017Z,21.58
2018-07-10T12:32:42.325Z,21.59
2018-07-10T12:34:08.753Z,21.75
2018-07-10T12:35:36.225Z,21.83
2018-07-10T12:37:04.678Z,21.89
2018-07-10T12:38:31.063Z,21.89
2018-07-10T12:39:58.507Z,21.94
2018-07-10T12:41:26.196Z,21.90
2018-07-10T12:42:54.763Z,21.75
2018-07-10T12:44:21.196Z,21.64
2018-07-10T12:45:48.795Z,21.67
2018-07-10T12:47:16.244Z,21.94
2018-07-10T12:48:44.866Z,22.29
2018-07-10T12:50:11.404Z,22.36
2018-07-10T12:51:38.968Z,22.35
2018-07-10T12:53:07.572Z,22.32
2018-07-10T12:54:35.214Z,22.28
2018-07-10T12:56:01.528Z,22.30
2018-07-10T12:57:30.048Z,22.43
2018-07-10T12:58:57.645Z,22.66
2018-07-10T13:00:24.253Z,22.79
2018-07-10T13:01:51.685Z,23.01
2018-07-10T13:03:19.195Z,23.29
2018-07-10T13:04:47.813Z,23.42
2018-07-10T13:06:15.310Z,23.13
2018-07-10T13:34:56.722Z,22.70
2018-07-10T13:36:23.093Z,22.57
2018-07-10T13:37:50.620Z,22.49
2018-07-10T13:39:17.959Z,22.41
2018-07-10T13:40:45.680Z,22.32
2018-07-10T13:42:13.300Z,22.28
2018-07-10T13:43:41.764Z,22.27
2018-07-10T13:45:09.236Z,22.28
2018-07-10T13:46:35.620Z,22.32
2018-07-10T13:48:03.116Z,22.31
2018-07-10T13:49:30.676Z,22.31
2018-07-10T13:50:58.131Z,22.26
2018-07-10T13:52:25.627Z,22.27
2018-07-10T13:53:54.070Z,22.28
2018-07-10T13:55:21.530Z,22.26
2018-07-10T13:56:49.099Z,22.24
2018-07-10T13:58:16.589Z,22.28
2018-07-10T13:59:44.311Z,22.31
2018-07-10T14:01:10.904Z,22.30
2018-07-10T14:02:38.482Z,22.29
2018-07-10T14:04:07.096Z,22.15
2018-07-10T14:05:34.629Z,21.99
2018-07-10T14:07:01.001Z,21.90
2018-07-10T14:08:28.484Z,21.81
2018-07-10T14:09:56.997Z,21.82
2018-07-10T14:11:23.588Z,21.80
2018-07-10T14:12:52.137Z,21.79
2018-07-10T14:14:19.621Z,21.71
2018-07-10T14:15:46.195Z,21.68
2018-07-10T14:17:13.499Z,21.72
2018-07-10T14:18:41.046Z,21.71
2018-07-10T14:20:08.584Z,21.69
2018-07-10T14:21:37.132Z,21.62
2018-07-10T14:23:04.687Z,21.59
2018-07-10T14:24:32.104Z,21.58
2018-07-10T14:25:58.543Z,21.54
2018-07-10T14:27:26.196Z,21.55
2018-07-10T14:28:54.917Z,21.50
2018-07-10T14:30:21.489Z,21.49
2018-07-10T14:31:48.990Z,21.50
2018-07-10T14:33:16.532Z,21.51
2018-07-10T14:34:43.973Z,21.56
2018-07-10T14:36:11.480Z,21.60
2018-07-10T14:37:40.054Z,21.62
2018-07-10T14:39:06.424Z,21.61
2018-07-10T14:40:34.975Z,21.59
2018-07-10T14:42:01.395Z,21.53
2018-07-10T14:43:28.866Z,21.52
2018-07-10T14:44:56.314Z,21.55
2018-07-10T14:46:25.007Z,21.51
2018-07-10T14:47:51.585Z,21.49
2018-07-10T14:49:19.078Z,21.48
2018-07-10T14:50:47.772Z,21.50
2018-07-10T14:52:14.420Z,21.53
2018-07-10T14:53:43.025Z,21.54
2018-07-10T14:55:09.510Z,21.56
2018-07-10T14:56:38.121Z,21.52
2018-07-10T14:58:05.553Z,21.51
2018-07-10T14:59:31.763Z,21.51
2018-07-10T15:00:59.325Z,21.50
2018-07-10T15:02:26.918Z,21.46
2018-07-10T15:03:54.012Z,21.44
2018-07-10T15:05:21.667Z,21.38
2018-07-10T15:06:49.136Z,21.38
2018-07-10T15:08:17.899Z,21.40
2018-07-10T15:09:44.434Z,21.44
2018-07-10T15:11:12.012Z,21.49
2018-07-10T15:12:40.589Z,21.52
2018-07-10T15:14:07.085Z,21.55
2018-07-10T15:15:34.759Z,21.59
2018-07-10T15:17:02.247Z,21.66
2018-07-10T15:18:30.836Z,21.74
2018-07-10T15:19:57.320Z,21.80
2018-07-10T15:21:24.647Z,21.81
2018-07-10T15:22:52.306Z,21.82
2018-07-10T15:24:19.902Z,21.82
2018-07-10T15:25:47.197Z,21.82
2018-07-10T15:27:14.837Z,21.82
2018-07-10T15:28:42.312Z,21.83
2018-07-10T15:30:12.712Z,21.81
2018-07-10T15:31:37.324Z,21.81
2018-07-10T15:33:04.965Z,21.87
2018-07-10T15:34:32.460Z,21.93
2018-07-10T15:36:01.084Z,21.97
2018-07-10T15:37:27.358Z,22.00
2018-07-10T15:38:54.964Z,22.01
2018-07-10T15:40:22.319Z,21.99
2018-07-10T15:41:51.064Z,21.98
2018-07-10T15:43:17.530Z,21.92
2018-07-10T15:44:45.969Z,21.86
2018-07-10T15:46:13.591Z,21.78
2018-07-10T15:47:40.164Z,21.69
2018-07-10T15:49:08.699Z,21.62
2018-07-10T15:50:36.220Z,21.57
2018-07-10T15:52:02.769Z,21.54
2018-07-10T15:53:31.070Z,21.51
2018-07-10T15:54:57.792Z,21.49
2018-07-10T15:56:26.293Z,21.49
2018-07-10T15:57:53.901Z,21.51
2018-07-10T15:59:21.328Z,21.52
2018-07-10T16:00:47.630Z,21.49
2018-07-10T16:02:14.907Z,21.44
2018-07-10T16:03:42.455Z,21.45
2018-07-10T16:05:09.943Z,21.50
2018-07-10T16:06:37.315Z,21.52
2018-07-10T16:08:04.989Z,21.54
2018-07-10T16:09:33.379Z,21.56
2018-07-10T16:11:00.974Z,21.57
2018-07-10T16:12:28.534Z,21.59
2018-07-10T16:13:55.996Z,21.63
2018-07-10T16:15:22.535Z,21.65
2018-07-10T16:16:51.116Z,21.65
2018-07-10T16:18:17.620Z,21.67
2018-07-10T16:19:45.204Z,21.71
2018-07-10T16:21:12.732Z,21.72
2018-07-10T16:22:41.048Z,21.73
2018-07-10T16:24:07.723Z,21.73
2018-07-10T16:25:36.217Z,21.71
2018-07-10T16:27:03.763Z,21.68
2018-07-10T16:28:30.209Z,21.65
2018-07-10T16:29:57.352Z,21.61
2018-07-10T16:31:25.003Z,21.60
2018-07-10T16:32:53.187Z,21.55
2018-07-10T16:34:19.799Z,21.50
2018-07-10T16:35:47.280Z,21.49
2018-07-10T16:37:16.059Z,21.47
2018-07-10T16:38:42.336Z,21.43
2018-07-10T16:40:09.852Z,21.37
2018-07-10T16:41:38.099Z,21.32
2018-07-10T16:43:04.480Z,21.27
2018-07-10T16:44:32.146Z,21.18
2018-07-10T16:45:59.376Z,21.06
2018-07-10T16:47:27.690Z,20.95
2018-07-10T16:48:54.256Z,20.92
2018-07-10T16:50:22.839Z,20.92
2018-07-10T16:51:49.096Z,20.93
2018-07-10T16:53:16.682Z,20.94
2018-07-10T16:54:45.051Z,20.90
2018-07-10T16:56:12.658Z,20.86
2018-07-10T16:57:38.954Z,20.86
2018-07-10T16:59:06.449Z,20.84
2018-07-10T17:00:33.978Z,20.83
2018-07-10T17:02:01.519Z,20.82
2018-07-10T17:03:28.950Z,20.81
2018-07-10T17:04:55.955Z,20.78
2018-07-10T17:06:23.489Z,20.77
2018-07-10T17:07:50.635Z,20.74
2018-07-10T17:09:18.154Z,20.69
2018-07-10T17:10:45.767Z,20.67
2018-07-10T17:12:13.318Z,20.66
2018-07-10T17:13:41.831Z,20.64
2018-07-10T17:15:08.035Z,20.63
2018-07-10T17:16:35.343Z,20.64
2018-07-10T17:18:02.785Z,20.65
2018-07-10T17:19:31.406Z,20.66
2018-07-10T17:20:57.792Z,20.65
2018-07-10T17:22:25.117Z,20.63
2018-07-10T17:23:52.655Z,20.58
2018-07-10T17:25:21.176Z,20.53
2018-07-10T17:26:47.586Z,20.48
2018-07-10T17:28:15.155Z,20.42
2018-07-10T17:29:42.584Z,20.35
2018-07-10T17:31:10.026Z,20.33
2018-07-10T17:32:38.469Z,20.34
2018-07-10T17:34:05.916Z,20.34
2018-07-10T17:35:33.491Z,20.32
2018-07-10T17:36:59.787Z,20.29
2018-07-10T17:38:28.216Z,20.27
2018-07-10T17:39:55.597Z,20.23
2018-07-10T17:41:22.091Z,20.19
2018-07-10T17:42:49.218Z,20.15
2018-07-10T17:44:17.801Z,20.13
2018-07-10T17:45:44.243Z,20.11
2018-07-10T17:47:11.721Z,20.08
2018-07-10T17:48:39.029Z,20.08
2018-07-10T17:50:07.672Z,20.07
2018-07-10T17:51:34.038Z,20.07
2018-07-10T17:53:01.620Z,20.05
2018-07-10T17:54:29.043Z,20.03
2018-07-10T17:55:57.588Z,20.00
2018-07-10T17:57:23.944Z,19.95
2018-07-10T17:58:52.547Z,19.94
2018-07-10T18:00:19.102Z,19.94
2018-07-10T18:01:47.694Z,19.95
2018-07-10T18:03:14.124Z,19.93
2018-07-10T18:04:41.565Z,19.89
2018-07-10T18:06:09.029Z,19.84
2018-07-10T18:07:37.524Z,19.78
2018-07-10T18:09:03.907Z,19.75
2018-07-10T18:10:31.494Z,19.68
2018-07-10T18:11:59.009Z,19.63
2018-07-10T18:13:26.257Z,19.57
2018-07-10T18:14:53.728Z,19.54
2018-07-10T18:16:21.334Z,19.51
2018-07-10T18:17:48.667Z,19.46
2018-07-10T18:19:15.985Z,19.42
2018-07-10T18:20:44.633Z,19.39
2018-07-10T18:22:12.016Z,19.35
2018-07-10T18:23:38.533Z,19.33
2018-07-10T18:25:06.064Z,19.30
2018-07-10T18:26:34.723Z,19.29
2018-07-10T18:28:00.820Z,19.28
2018-07-10T18:29:29.269Z,19.27
2018-07-10T18:30:56.735Z,19.27
2018-07-10T18:32:23.038Z,19.27
2018-07-10T18:33:50.458Z,19.26
2018-07-10T18:35:17.969Z,19.22
2018-07-10T18:36:45.407Z,19.16
2018-07-10T18:38:13.024Z,19.15
2018-07-10T18:39:41.435Z,19.13
2018-07-10T18:41:07.747Z,19.08
2018-07-10T18:42:36.370Z,19.09
2018-07-10T18:44:03.606Z,19.08
2018-07-10T18:45:30.963Z,19.08
2018-07-10T18:46:57.317Z,19.08
2018-07-10T18:48:25.923Z,19.09
2018-07-10T18:49:52.159Z,19.09
2018-07-10T18:51:19.677Z,19.11
2018-07-10T18:52:47.248Z,19.11
2018-07-10T18:54:16.040Z,19.10
2018-07-10T18:55:42.252Z,19.10
2018-07-10T18:57:09.720Z,19.08
2018-07-10T18:58:37.420Z,19.06
2018-07-10T19:00:05.909Z,19.04
2018-07-10T19:01:32.422Z,19.02
2018-07-10T19:03:00.847Z,18.98
2018-07-10T19:04:27.249Z,18.94
2018-07-10T19:05:54.827Z,18.90
2018-07-10T19:07:22.135Z,18.85
2018-07-10T19:08:50.688Z,18.81
2018-07-10T19:10:17.209Z,18.74
2018-07-10T19:11:44.569Z,18.72
2018-07-10T19:13:12.010Z,18.70